sensor_id;sensor_type;location;lat;lon;timestamp;pressure;altitude;pressure_sealevel;temperature;humidity
62926;BME280;55732;52.248;-0.844;2023-05-27T00:00:02;102232.63;;;10.33;65.21
62926;BME280;55732;52.248;-0.844;2023-05-27T00:02:28;102232.11;;;10.33;65.31
62926;BME280;55732;52.248;-0.844;2023-05-27T00:04:53;102230.48;;;10.32;65.49
62926;BME280;55732;52.248;-0.844;2023-05-27T00:07:18;102233.29;;;10.31;65.34
62926;BME280;55732;52.248;-0.844;2023-05-27T00:09:45;102230.14;;;10.32;65.42
62926;BME280;55732;52.248;-0.844;2023-05-27T00:12:10;102229.63;;;10.32;65.41
62926;BME280;55732;52.248;-0.844;2023-05-27T00:14:36;102229.42;;;10.32;65.38
62926;BME280;55732;52.248;-0.844;2023-05-27T00:17:01;102220.77;;;10.31;65.43
62926;BME280;55732;52.248;-0.844;2023-05-27T00:19:29;102221.59;;;10.28;65.49
62926;BME280;55732;52.248;-0.844;2023-05-27T00:21:56;102220.77;;;10.24;65.86
62926;BME280;55732;52.248;-0.844;2023-05-27T00:24:21;102218.51;;;10.19;66.03
62926;BME280;55732;52.248;-0.844;2023-05-27T00:26:47;102212.44;;;10.17;66.11
62926;BME280;55732;52.248;-0.844;2023-05-27T00:29:13;102212.40;;;10.14;66.14
62926;BME280;55732;52.248;-0.844;2023-05-27T00:31:39;102207.35;;;10.10;66.36
62926;BME280;55732;52.248;-0.844;2023-05-27T00:34:04;102206.61;;;10.09;66.39
62926;BME280;55732;52.248;-0.844;2023-05-27T00:36:30;102201.31;;;10.08;66.52
62926;BME280;55732;52.248;-0.844;2023-05-27T00:38:57;102204.23;;;10.06;66.73
62926;BME280;55732;52.248;-0.844;2023-05-27T00:41:22;102199.20;;;10.01;66.85
62926;BME280;55732;52.248;-0.844;2023-05-27T00:43:48;102195.04;;;9.97;67.16
62926;BME280;55732;52.248;-0.844;2023-05-27T00:46:14;102196.29;;;9.92;67.44
62926;BME280;55732;52.248;-0.844;2023-05-27T00:48:39;102191.65;;;9.89;67.68
62926;BME280;55732;52.248;-0.844;2023-05-27T00:51:05;102188.91;;;9.85;67.80
62926;BME280;55732;52.248;-0.844;2023-05-27T00:53:44;102186.67;;;9.82;67.84
62926;BME280;55732;52.248;-0.844;2023-05-27T00:56:11;102187.15;;;9.79;68.04
62926;BME280;55732;52.248;-0.844;2023-05-27T00:58:38;102185.52;;;9.77;68.22
62926;BME280;55732;52.248;-0.844;2023-05-27T01:01:04;102183.35;;;9.76;68.28
62926;BME280;55732;52.248;-0.844;2023-05-27T01:03:30;102185.61;;;9.74;68.53
62926;BME280;55732;52.248;-0.844;2023-05-27T01:06:23;102180.07;;;9.71;68.66
62926;BME280;55732;52.248;-0.844;2023-05-27T01:09:11;102179.16;;;9.71;68.83
62926;BME280;55732;52.248;-0.844;2023-05-27T01:11:51;102180.90;;;9.70;68.80
62926;BME280;55732;52.248;-0.844;2023-05-27T01:14:21;102180.33;;;9.68;68.83
62926;BME280;55732;52.248;-0.844;2023-05-27T01:16:49;102180.32;;;9.67;68.99
62926;BME280;55732;52.248;-0.844;2023-05-27T01:19:27;102180.30;;;9.67;69.23
62926;BME280;55732;52.248;-0.844;2023-05-27T01:21:57;102172.04;;;9.68;69.21
62926;BME280;55732;52.248;-0.844;2023-05-27T01:24:24;102170.66;;;9.69;69.05
62926;BME280;55732;52.248;-0.844;2023-05-27T01:26:49;102169.10;;;9.69;69.31
62926;BME280;55732;52.248;-0.844;2023-05-27T01:29:14;102166.08;;;9.67;69.38
62926;BME280;55732;52.248;-0.844;2023-05-27T01:31:44;102156.95;;;9.62;69.48
62926;BME280;55732;52.248;-0.844;2023-05-27T01:34:16;102158.54;;;9.62;69.80
62926;BME280;55732;52.248;-0.844;2023-05-27T01:36:47;102158.48;;;9.66;69.77
62926;BME280;55732;52.248;-0.844;2023-05-27T01:39:15;102162.17;;;9.66;69.72
62926;BME280;55732;52.248;-0.844;2023-05-27T01:41:42;102163.77;;;9.67;69.74
62926;BME280;55732;52.248;-0.844;2023-05-27T01:44:10;102163.43;;;9.67;69.83
62926;BME280;55732;52.248;-0.844;2023-05-27T01:46:36;102157.80;;;9.67;69.79
62926;BME280;55732;52.248;-0.844;2023-05-27T01:49:03;102151.28;;;9.66;69.97
62926;BME280;55732;52.248;-0.844;2023-05-27T01:51:28;102150.39;;;9.66;69.96
62926;BME280;55732;52.248;-0.844;2023-05-27T01:53:54;102149.73;;;9.62;69.86
62926;BME280;55732;52.248;-0.844;2023-05-27T01:56:19;102149.44;;;9.58;70.18
62926;BME280;55732;52.248;-0.844;2023-05-27T01:58:45;102145.11;;;9.53;70.24
62926;BME280;55732;52.248;-0.844;2023-05-27T02:01:10;102142.35;;;9.49;70.49
62926;BME280;55732;52.248;-0.844;2023-05-27T02:03:35;102145.92;;;9.46;70.72
62926;BME280;55732;52.248;-0.844;2023-05-27T02:06:01;102143.60;;;9.44;70.88
62926;BME280;55732;52.248;-0.844;2023-05-27T02:08:26;102141.65;;;9.43;70.77
62926;BME280;55732;52.248;-0.844;2023-05-27T02:10:53;102142.31;;;9.41;71.18
62926;BME280;55732;52.248;-0.844;2023-05-27T02:13:18;102141.06;;;9.41;71.15
62926;BME280;55732;52.248;-0.844;2023-05-27T02:15:43;102136.85;;;9.41;71.41
62926;BME280;55732;52.248;-0.844;2023-05-27T02:18:09;102136.73;;;9.37;71.47
62926;BME280;55732;52.248;-0.844;2023-05-27T02:20:35;102136.98;;;9.34;71.61
62926;BME280;55732;52.248;-0.844;2023-05-27T02:23:05;102136.55;;;9.31;71.84
62926;BME280;55732;52.248;-0.844;2023-05-27T02:25:31;102134.56;;;9.29;71.99
62926;BME280;55732;52.248;-0.844;2023-05-27T02:27:56;102131.15;;;9.26;72.42
62926;BME280;55732;52.248;-0.844;2023-05-27T02:30:22;102131.96;;;9.24;72.46
62926;BME280;55732;52.248;-0.844;2023-05-27T02:32:47;102131.73;;;9.23;72.49
62926;BME280;55732;52.248;-0.844;2023-05-27T02:35:13;102131.69;;;9.21;72.66
62926;BME280;55732;52.248;-0.844;2023-05-27T02:37:42;102129.73;;;9.20;72.78
62926;BME280;55732;52.248;-0.844;2023-05-27T02:40:08;102129.84;;;9.17;73.00
62926;BME280;55732;52.248;-0.844;2023-05-27T02:42:34;102129.23;;;9.15;72.85
62926;BME280;55732;52.248;-0.844;2023-05-27T02:44:59;102122.89;;;9.15;72.98
62926;BME280;55732;52.248;-0.844;2023-05-27T02:47:25;102128.52;;;9.15;73.25
62926;BME280;55732;52.248;-0.844;2023-05-27T02:49:50;102126.95;;;9.15;73.47
62926;BME280;55732;52.248;-0.844;2023-05-27T02:52:16;102126.39;;;9.14;73.57
62926;BME280;55732;52.248;-0.844;2023-05-27T02:54:41;102117.29;;;9.09;73.55
62926;BME280;55732;52.248;-0.844;2023-05-27T02:57:07;102119.45;;;9.11;73.74
62926;BME280;55732;52.248;-0.844;2023-05-27T02:59:32;102122.91;;;9.09;73.76
62926;BME280;55732;52.248;-0.844;2023-05-27T03:01:58;102118.24;;;9.06;73.97
62926;BME280;55732;52.248;-0.844;2023-05-27T03:04:23;102121.35;;;9.04;74.02
62926;BME280;55732;52.248;-0.844;2023-05-27T03:06:48;102120.94;;;9.02;73.97
62926;BME280;55732;52.248;-0.844;2023-05-27T03:09:14;102116.99;;;8.99;74.26
62926;BME280;55732;52.248;-0.844;2023-05-27T03:11:40;102116.73;;;8.96;74.55
62926;BME280;55732;52.248;-0.844;2023-05-27T03:14:05;102119.43;;;8.93;74.62
62926;BME280;55732;52.248;-0.844;2023-05-27T03:16:31;102120.55;;;8.89;74.61
62926;BME280;55732;52.248;-0.844;2023-05-27T03:18:56;102119.58;;;8.87;74.85
62926;BME280;55732;52.248;-0.844;2023-05-27T03:21:22;102119.70;;;8.85;75.02
62926;BME280;55732;52.248;-0.844;2023-05-27T03:23:47;102119.64;;;8.82;75.19
62926;BME280;55732;52.248;-0.844;2023-05-27T03:26:13;102118.73;;;8.81;75.57
62926;BME280;55732;52.248;-0.844;2023-05-27T03:28:38;102110.48;;;8.82;75.51
62926;BME280;55732;52.248;-0.844;2023-05-27T03:31:03;102113.66;;;8.82;75.63
62926;BME280;55732;52.248;-0.844;2023-05-27T03:33:29;102107.71;;;8.83;75.81
62926;BME280;55732;52.248;-0.844;2023-05-27T03:35:55;102109.32;;;8.83;75.86
62926;BME280;55732;52.248;-0.844;2023-05-27T03:38:21;102105.45;;;8.83;75.84
62926;BME280;55732;52.248;-0.844;2023-05-27T03:40:46;102104.04;;;8.83;75.72
62926;BME280;55732;52.248;-0.844;2023-05-27T03:43:11;102105.96;;;8.83;75.36
62926;BME280;55732;52.248;-0.844;2023-05-27T03:45:37;102102.69;;;8.79;75.18
62926;BME280;55732;52.248;-0.844;2023-05-27T03:48:02;102104.13;;;8.75;75.40
62926;BME280;55732;52.248;-0.844;2023-05-27T03:50:28;102100.92;;;8.74;75.63
62926;BME280;55732;52.248;-0.844;2023-05-27T03:52:53;102099.34;;;8.74;76.01
62926;BME280;55732;52.248;-0.844;2023-05-27T03:55:19;102101.61;;;8.73;75.70
62926;BME280;55732;52.248;-0.844;2023-05-27T03:57:46;102095.92;;;8.71;75.78
62926;BME280;55732;52.248;-0.844;2023-05-27T04:00:11;102096.96;;;8.70;75.76
62926;BME280;55732;52.248;-0.844;2023-05-27T04:02:38;102094.13;;;8.69;75.65
62926;BME280;55732;52.248;-0.844;2023-05-27T04:05:04;102096.95;;;8.69;75.52
62926;BME280;55732;52.248;-0.844;2023-05-27T04:07:29;102097.27;;;8.68;75.74
62926;BME280;55732;52.248;-0.844;2023-05-27T04:09:57;102099.23;;;8.69;75.87
62926;BME280;55732;52.248;-0.844;2023-05-27T04:12:23;102098.39;;;8.71;75.78
62926;BME280;55732;52.248;-0.844;2023-05-27T04:14:48;102100.19;;;8.72;75.67
62926;BME280;55732;52.248;-0.844;2023-05-27T04:17:14;102097.58;;;8.73;75.57
62926;BME280;55732;52.248;-0.844;2023-05-27T04:19:39;102098.04;;;8.77;75.95
62926;BME280;55732;52.248;-0.844;2023-05-27T04:22:05;102098.20;;;8.82;75.94
62926;BME280;55732;52.248;-0.844;2023-05-27T04:24:30;102091.10;;;8.86;76.03
62926;BME280;55732;52.248;-0.844;2023-05-27T04:26:55;102096.15;;;8.90;76.00
62926;BME280;55732;52.248;-0.844;2023-05-27T04:29:21;102099.30;;;8.95;75.97
62926;BME280;55732;52.248;-0.844;2023-05-27T04:31:48;102099.58;;;9.16;75.83
62926;BME280;55732;52.248;-0.844;2023-05-27T04:34:14;102105.41;;;9.43;75.42
62926;BME280;55732;52.248;-0.844;2023-05-27T04:36:39;102106.14;;;9.56;75.20
62926;BME280;55732;52.248;-0.844;2023-05-27T04:39:04;102106.10;;;9.61;74.90
62926;BME280;55732;52.248;-0.844;2023-05-27T04:41:30;102101.42;;;9.64;74.88
62926;BME280;55732;52.248;-0.844;2023-05-27T04:43:58;102106.23;;;9.66;74.81
62926;BME280;55732;52.248;-0.844;2023-05-27T04:46:26;102107.29;;;9.66;74.86
62926;BME280;55732;52.248;-0.844;2023-05-27T04:48:54;102103.63;;;9.67;74.85
62926;BME280;55732;52.248;-0.844;2023-05-27T04:51:20;102104.09;;;9.71;74.85
62926;BME280;55732;52.248;-0.844;2023-05-27T04:53:46;102102.08;;;9.75;74.86
62926;BME280;55732;52.248;-0.844;2023-05-27T04:56:15;102100.75;;;9.77;75.01
62926;BME280;55732;52.248;-0.844;2023-05-27T04:58:43;102106.20;;;9.77;74.94
62926;BME280;55732;52.248;-0.844;2023-05-27T05:01:12;102102.17;;;9.72;75.09
62926;BME280;55732;52.248;-0.844;2023-05-27T05:03:46;102103.29;;;9.74;75.23
62926;BME280;55732;52.248;-0.844;2023-05-27T05:06:28;102104.08;;;9.84;75.30
62926;BME280;55732;52.248;-0.844;2023-05-27T05:08:53;102104.41;;;9.90;75.04
62926;BME280;55732;52.248;-0.844;2023-05-27T05:11:18;102101.16;;;9.94;75.00
62926;BME280;55732;52.248;-0.844;2023-05-27T05:13:44;102106.24;;;10.00;75.10
62926;BME280;55732;52.248;-0.844;2023-05-27T05:16:09;102104.80;;;10.06;75.03
62926;BME280;55732;52.248;-0.844;2023-05-27T05:18:34;102106.98;;;10.08;74.97
62926;BME280;55732;52.248;-0.844;2023-05-27T05:21:00;102104.12;;;10.06;75.08
62926;BME280;55732;52.248;-0.844;2023-05-27T05:23:25;102103.92;;;10.06;75.06
62926;BME280;55732;52.248;-0.844;2023-05-27T05:25:50;102100.05;;;10.05;75.22
62926;BME280;55732;52.248;-0.844;2023-05-27T05:28:22;102096.00;;;10.05;75.34
62926;BME280;55732;52.248;-0.844;2023-05-27T05:30:48;102096.80;;;10.16;75.38
62926;BME280;55732;52.248;-0.844;2023-05-27T05:33:13;102098.37;;;10.36;75.02
62926;BME280;55732;52.248;-0.844;2023-05-27T05:35:38;102091.38;;;10.53;74.61
62926;BME280;55732;52.248;-0.844;2023-05-27T05:38:04;102092.30;;;10.63;74.41
62926;BME280;55732;52.248;-0.844;2023-05-27T05:40:29;102087.77;;;10.65;74.45
62926;BME280;55732;52.248;-0.844;2023-05-27T05:42:55;102094.13;;;10.74;74.52
62926;BME280;55732;52.248;-0.844;2023-05-27T05:45:20;102095.23;;;10.76;74.45
62926;BME280;55732;52.248;-0.844;2023-05-27T05:47:45;102102.43;;;10.75;74.47
62926;BME280;55732;52.248;-0.844;2023-05-27T05:50:11;102104.26;;;10.77;74.63
62926;BME280;55732;52.248;-0.844;2023-05-27T05:52:36;102102.70;;;10.78;74.82
62926;BME280;55732;52.248;-0.844;2023-05-27T05:55:02;102099.93;;;10.73;75.08
62926;BME280;55732;52.248;-0.844;2023-05-27T05:57:27;102100.20;;;10.69;75.42
62926;BME280;55732;52.248;-0.844;2023-05-27T05:59:57;102101.00;;;10.66;75.54
62926;BME280;55732;52.248;-0.844;2023-05-27T06:02:22;102104.24;;;10.61;76.08
62926;BME280;55732;52.248;-0.844;2023-05-27T06:04:47;102101.95;;;10.54;76.11
62926;BME280;55732;52.248;-0.844;2023-05-27T06:07:13;102096.73;;;10.48;76.52
62926;BME280;55732;52.248;-0.844;2023-05-27T06:09:38;102096.48;;;10.46;76.83
62926;BME280;55732;52.248;-0.844;2023-05-27T06:12:04;102099.42;;;10.44;76.93
62926;BME280;55732;52.248;-0.844;2023-05-27T06:14:29;102100.13;;;10.43;77.16
62926;BME280;55732;52.248;-0.844;2023-05-27T06:16:55;102091.59;;;10.40;77.11
62926;BME280;55732;52.248;-0.844;2023-05-27T06:19:20;102100.23;;;10.47;77.37
62926;BME280;55732;52.248;-0.844;2023-05-27T06:21:45;102097.27;;;10.48;77.15
62926;BME280;55732;52.248;-0.844;2023-05-27T06:24:11;102099.83;;;10.45;77.61
62926;BME280;55732;52.248;-0.844;2023-05-27T06:26:36;102094.17;;;10.37;77.73
62926;BME280;55732;52.248;-0.844;2023-05-27T06:29:01;102095.73;;;10.35;78.12
62926;BME280;55732;52.248;-0.844;2023-05-27T06:31:27;102091.75;;;10.32;78.12
62926;BME280;55732;52.248;-0.844;2023-05-27T06:33:53;102090.98;;;10.30;78.34
62926;BME280;55732;52.248;-0.844;2023-05-27T06:36:18;102087.07;;;10.28;78.51
62926;BME280;55732;52.248;-0.844;2023-05-27T06:38:44;102087.15;;;10.31;78.75
62926;BME280;55732;52.248;-0.844;2023-05-27T06:41:09;102093.38;;;10.33;78.86
62926;BME280;55732;52.248;-0.844;2023-05-27T06:43:35;102087.88;;;10.32;78.96
62926;BME280;55732;52.248;-0.844;2023-05-27T06:46:00;102086.44;;;10.31;79.17
62926;BME280;55732;52.248;-0.844;2023-05-27T06:48:26;102079.27;;;10.33;79.31
62926;BME280;55732;52.248;-0.844;2023-05-27T06:50:51;102084.77;;;10.35;79.21
62926;BME280;55732;52.248;-0.844;2023-05-27T06:53:16;102083.34;;;10.41;79.12
62926;BME280;55732;52.248;-0.844;2023-05-27T06:55:42;102081.71;;;10.46;79.21
62926;BME280;55732;52.248;-0.844;2023-05-27T06:58:07;102080.89;;;10.48;79.40
62926;BME280;55732;52.248;-0.844;2023-05-27T07:00:32;102080.38;;;10.49;79.36
62926;BME280;55732;52.248;-0.844;2023-05-27T07:02:58;102077.30;;;10.54;79.32
62926;BME280;55732;52.248;-0.844;2023-05-27T07:05:25;102078.60;;;10.56;79.30
62926;BME280;55732;52.248;-0.844;2023-05-27T07:07:51;102078.18;;;10.61;79.27
62926;BME280;55732;52.248;-0.844;2023-05-27T07:10:16;102070.69;;;10.65;79.16
62926;BME280;55732;52.248;-0.844;2023-05-27T07:12:41;102069.77;;;10.70;79.24
62926;BME280;55732;52.248;-0.844;2023-05-27T07:15:07;102066.65;;;10.72;78.95
62926;BME280;55732;52.248;-0.844;2023-05-27T07:17:33;102066.88;;;10.76;79.15
62926;BME280;55732;52.248;-0.844;2023-05-27T07:19:58;102064.65;;;10.79;78.82
62926;BME280;55732;52.248;-0.844;2023-05-27T07:22:24;102063.14;;;10.82;78.84
62926;BME280;55732;52.248;-0.844;2023-05-27T07:24:50;102060.03;;;10.85;78.59
62926;BME280;55732;52.248;-0.844;2023-05-27T07:27:15;102062.47;;;10.93;78.49
62926;BME280;55732;52.248;-0.844;2023-05-27T07:29:41;102061.39;;;11.00;78.25
62926;BME280;55732;52.248;-0.844;2023-05-27T07:32:06;102058.86;;;11.05;77.11
62926;BME280;55732;52.248;-0.844;2023-05-27T07:34:31;102058.71;;;11.06;76.43
62926;BME280;55732;52.248;-0.844;2023-05-27T07:36:58;102056.16;;;11.20;75.85
62926;BME280;55732;52.248;-0.844;2023-05-27T07:39:23;102053.30;;;11.27;75.56
62926;BME280;55732;52.248;-0.844;2023-05-27T07:41:48;102051.41;;;11.29;75.31
62926;BME280;55732;52.248;-0.844;2023-05-27T07:44:14;102046.35;;;11.32;75.15
62926;BME280;55732;52.248;-0.844;2023-05-27T07:46:39;102048.23;;;11.39;75.29
62926;BME280;55732;52.248;-0.844;2023-05-27T07:49:05;102047.66;;;11.45;74.75
62926;BME280;55732;52.248;-0.844;2023-05-27T07:51:31;102046.25;;;11.54;74.36
62926;BME280;55732;52.248;-0.844;2023-05-27T07:53:57;102046.91;;;11.81;73.47
62926;BME280;55732;52.248;-0.844;2023-05-27T07:56:22;102044.75;;;12.10;72.49
62926;BME280;55732;52.248;-0.844;2023-05-27T07:58:47;102040.58;;;12.25;72.06
62926;BME280;55732;52.248;-0.844;2023-05-27T08:01:13;102039.09;;;12.33;71.29
62926;BME280;55732;52.248;-0.844;2023-05-27T08:03:38;102036.66;;;12.35;71.01
62926;BME280;55732;52.248;-0.844;2023-05-27T08:06:03;102028.45;;;12.42;70.97
62926;BME280;55732;52.248;-0.844;2023-05-27T08:08:29;102029.34;;;12.55;70.51
62926;BME280;55732;52.248;-0.844;2023-05-27T08:10:54;102031.27;;;12.93;69.72
62926;BME280;55732;52.248;-0.844;2023-05-27T08:13:20;102029.61;;;13.03;68.99
62926;BME280;55732;52.248;-0.844;2023-05-27T08:15:45;102028.98;;;13.08;68.73
62926;BME280;55732;52.248;-0.844;2023-05-27T08:18:12;102027.52;;;13.04;68.86
62926;BME280;55732;52.248;-0.844;2023-05-27T08:20:37;102020.13;;;13.07;68.70
62926;BME280;55732;52.248;-0.844;2023-05-27T08:23:02;102025.40;;;13.53;66.60
62926;BME280;55732;52.248;-0.844;2023-05-27T08:25:28;102015.35;;;14.46;64.95
62926;BME280;55732;52.248;-0.844;2023-05-27T08:27:54;102006.81;;;15.54;63.31
62926;BME280;55732;52.248;-0.844;2023-05-27T08:30:27;101999.73;;;18.23;58.60
62926;BME280;55732;52.248;-0.844;2023-05-27T08:32:54;101994.58;;;20.83;51.02
62926;BME280;55732;52.248;-0.844;2023-05-27T08:35:19;101988.73;;;22.66;47.79
62926;BME280;55732;52.248;-0.844;2023-05-27T08:37:45;101980.64;;;24.54;43.38
62926;BME280;55732;52.248;-0.844;2023-05-27T08:40:13;101981.98;;;25.97;41.89
62926;BME280;55732;52.248;-0.844;2023-05-27T08:42:40;101979.94;;;27.14;38.24
62926;BME280;55732;52.248;-0.844;2023-05-27T08:45:06;101974.79;;;26.22;38.94
62926;BME280;55732;52.248;-0.844;2023-05-27T08:47:32;101970.11;;;26.21;39.07
62926;BME280;55732;52.248;-0.844;2023-05-27T08:49:58;101969.48;;;27.82;36.80
62926;BME280;55732;52.248;-0.844;2023-05-27T08:52:29;101964.73;;;28.62;33.69
62926;BME280;55732;52.248;-0.844;2023-05-27T08:54:58;101958.27;;;27.35;35.68
62926;BME280;55732;52.248;-0.844;2023-05-27T08:57:29;101945.88;;;28.58;34.08
62926;BME280;55732;52.248;-0.844;2023-05-27T08:59:56;101945.20;;;29.78;31.94
62926;BME280;55732;52.248;-0.844;2023-05-27T09:02:22;101945.64;;;30.60;29.48
62926;BME280;55732;52.248;-0.844;2023-05-27T09:04:48;101943.27;;;30.83;29.01
62926;BME280;55732;52.248;-0.844;2023-05-27T09:07:14;101940.48;;;31.23;29.37
62926;BME280;55732;52.248;-0.844;2023-05-27T09:09:40;101934.07;;;32.06;29.18
62926;BME280;55732;52.248;-0.844;2023-05-27T09:12:06;101933.42;;;32.78;27.99
62926;BME280;55732;52.248;-0.844;2023-05-27T09:14:35;101930.38;;;33.51;27.80
62926;BME280;55732;52.248;-0.844;2023-05-27T09:17:07;101929.95;;;34.06;27.08
62926;BME280;55732;52.248;-0.844;2023-05-27T09:19:34;101926.84;;;34.43;25.91
62926;BME280;55732;52.248;-0.844;2023-05-27T09:22:00;101929.17;;;34.66;24.01
62926;BME280;55732;52.248;-0.844;2023-05-27T09:24:26;101925.80;;;34.35;23.77
62926;BME280;55732;52.248;-0.844;2023-05-27T09:26:52;101923.08;;;34.30;24.07
62926;BME280;55732;52.248;-0.844;2023-05-27T09:29:19;101918.60;;;34.47;24.44
62926;BME280;55732;52.248;-0.844;2023-05-27T09:31:45;101912.56;;;34.77;24.00
62926;BME280;55732;52.248;-0.844;2023-05-27T09:36:48;101913.10;;;35.05;23.71
62926;BME280;55732;52.248;-0.844;2023-05-27T09:39:15;101917.20;;;35.11;23.00
62926;BME280;55732;52.248;-0.844;2023-05-27T09:41:41;101908.23;;;34.91;22.87
62926;BME280;55732;52.248;-0.844;2023-05-27T09:44:07;101909.70;;;34.64;22.76
62926;BME280;55732;52.248;-0.844;2023-05-27T09:46:33;101904.35;;;34.11;22.60
62926;BME280;55732;52.248;-0.844;2023-05-27T09:48:59;101897.30;;;33.68;23.41
62926;BME280;55732;52.248;-0.844;2023-05-27T09:51:26;101890.98;;;33.60;23.92
62926;BME280;55732;52.248;-0.844;2023-05-27T09:53:53;101887.29;;;33.70;23.79
62926;BME280;55732;52.248;-0.844;2023-05-27T09:56:23;101889.79;;;33.91;23.92
62926;BME280;55732;52.248;-0.844;2023-05-27T09:58:49;101888.02;;;34.00;23.26
62926;BME280;55732;52.248;-0.844;2023-05-27T10:01:14;101881.23;;;33.68;23.15
62926;BME280;55732;52.248;-0.844;2023-05-27T10:03:43;101875.42;;;33.50;23.44
62926;BME280;55732;52.248;-0.844;2023-05-27T10:06:11;101880.95;;;33.31;23.63
62926;BME280;55732;52.248;-0.844;2023-05-27T10:08:38;101878.45;;;32.96;23.70
62926;BME280;55732;52.248;-0.844;2023-05-27T10:11:03;101871.31;;;32.92;24.01
62926;BME280;55732;52.248;-0.844;2023-05-27T10:13:29;101870.38;;;33.07;23.60
62926;BME280;55732;52.248;-0.844;2023-05-27T10:15:55;101869.87;;;32.94;23.44
62926;BME280;55732;52.248;-0.844;2023-05-27T10:18:28;101872.15;;;32.68;23.53
62926;BME280;55732;52.248;-0.844;2023-05-27T10:20:54;101870.15;;;32.13;24.17
62926;BME280;55732;52.248;-0.844;2023-05-27T10:23:24;101865.85;;;31.65;24.41
62926;BME280;55732;52.248;-0.844;2023-05-27T10:25:52;101858.70;;;30.65;25.53
62926;BME280;55732;52.248;-0.844;2023-05-27T10:28:31;101864.88;;;29.27;26.87
62926;BME280;55732;52.248;-0.844;2023-05-27T10:31:11;101868.88;;;27.56;28.26
62926;BME280;55732;52.248;-0.844;2023-05-27T10:33:44;101864.70;;;26.04;30.30
62926;BME280;55732;52.248;-0.844;2023-05-27T10:36:16;101854.45;;;25.03;31.94
62926;BME280;55732;52.248;-0.844;2023-05-27T10:38:43;101854.93;;;24.07;33.31
62926;BME280;55732;52.248;-0.844;2023-05-27T10:41:19;101847.17;;;23.37;34.79
62926;BME280;55732;52.248;-0.844;2023-05-27T10:43:54;101850.15;;;22.96;35.57
62926;BME280;55732;52.248;-0.844;2023-05-27T10:46:20;101851.99;;;22.43;36.44
62926;BME280;55732;52.248;-0.844;2023-05-27T10:48:46;101852.35;;;21.93;37.52
62926;BME280;55732;52.248;-0.844;2023-05-27T10:51:11;101839.60;;;21.61;37.91
62926;BME280;55732;52.248;-0.844;2023-05-27T10:53:37;101837.02;;;21.51;38.24
62926;BME280;55732;52.248;-0.844;2023-05-27T10:56:02;101832.80;;;21.33;38.51
62926;BME280;55732;52.248;-0.844;2023-05-27T10:58:28;101833.19;;;21.18;38.26
62926;BME280;55732;52.248;-0.844;2023-05-27T11:00:55;101833.31;;;21.05;38.52
62926;BME280;55732;52.248;-0.844;2023-05-27T11:03:24;101828.94;;;21.01;38.21
62926;BME280;55732;52.248;-0.844;2023-05-27T11:08:22;101833.05;;;20.63;39.21
62926;BME280;55732;52.248;-0.844;2023-05-27T11:10:48;101821.55;;;20.50;39.66
62926;BME280;55732;52.248;-0.844;2023-05-27T11:13:13;101819.14;;;20.45;39.89
62926;BME280;55732;52.248;-0.844;2023-05-27T11:15:41;101820.57;;;20.46;40.63
62926;BME280;55732;52.248;-0.844;2023-05-27T11:18:08;101819.77;;;20.33;41.12
62926;BME280;55732;52.248;-0.844;2023-05-27T11:20:37;101813.91;;;20.22;41.28
62926;BME280;55732;52.248;-0.844;2023-05-27T11:23:03;101809.48;;;20.29;41.71
62926;BME280;55732;52.248;-0.844;2023-05-27T11:25:43;101811.36;;;20.49;41.48
62926;BME280;55732;52.248;-0.844;2023-05-27T11:28:18;101807.54;;;20.60;40.87
62926;BME280;55732;52.248;-0.844;2023-05-27T11:30:43;101805.56;;;20.60;40.30
62926;BME280;55732;52.248;-0.844;2023-05-27T11:33:09;101803.16;;;20.56;40.45
62926;BME280;55732;52.248;-0.844;2023-05-27T11:35:35;101799.55;;;20.50;40.56
62926;BME280;55732;52.248;-0.844;2023-05-27T11:38:00;101787.87;;;20.52;40.69
62926;BME280;55732;52.248;-0.844;2023-05-27T11:40:36;101788.04;;;20.60;41.09
62926;BME280;55732;52.248;-0.844;2023-05-27T11:43:02;101787.80;;;20.63;41.07
62926;BME280;55732;52.248;-0.844;2023-05-27T11:45:27;101786.29;;;20.66;41.08
62926;BME280;55732;52.248;-0.844;2023-05-27T11:47:53;101783.09;;;20.73;41.16
62926;BME280;55732;52.248;-0.844;2023-05-27T11:50:21;101780.32;;;20.76;41.11
62926;BME280;55732;52.248;-0.844;2023-05-27T11:52:57;101784.16;;;20.72;41.19
62926;BME280;55732;52.248;-0.844;2023-05-27T11:55:23;101774.59;;;20.68;41.46
62926;BME280;55732;52.248;-0.844;2023-05-27T11:57:49;101772.52;;;20.65;41.57
62926;BME280;55732;52.248;-0.844;2023-05-27T12:00:15;101768.81;;;20.55;41.79
62926;BME280;55732;52.248;-0.844;2023-05-27T12:02:41;101762.73;;;20.63;42.23
62926;BME280;55732;52.248;-0.844;2023-05-27T12:05:08;101762.88;;;20.72;41.99
62926;BME280;55732;52.248;-0.844;2023-05-27T12:07:34;101758.90;;;20.73;41.56
62926;BME280;55732;52.248;-0.844;2023-05-27T12:10:01;101751.73;;;20.66;41.81
62926;BME280;55732;52.248;-0.844;2023-05-27T12:12:26;101749.83;;;20.64;41.94
62926;BME280;55732;52.248;-0.844;2023-05-27T12:14:52;101748.34;;;20.74;42.17
62926;BME280;55732;52.248;-0.844;2023-05-27T12:17:17;101740.77;;;20.89;42.05
62926;BME280;55732;52.248;-0.844;2023-05-27T12:19:42;101741.63;;;21.12;41.83
62926;BME280;55732;52.248;-0.844;2023-05-27T12:22:08;101745.36;;;21.27;41.30
62926;BME280;55732;52.248;-0.844;2023-05-27T12:24:33;101741.57;;;21.28;41.35
62926;BME280;55732;52.248;-0.844;2023-05-27T12:26:59;101743.14;;;21.36;41.36
62926;BME280;55732;52.248;-0.844;2023-05-27T12:29:25;101744.15;;;21.38;40.95
62926;BME280;55732;52.248;-0.844;2023-05-27T12:31:51;101736.82;;;21.32;41.39
62926;BME280;55732;52.248;-0.844;2023-05-27T12:34:16;101731.66;;;21.30;41.45
62926;BME280;55732;52.248;-0.844;2023-05-27T12:36:42;101722.11;;;21.39;41.63
62926;BME280;55732;52.248;-0.844;2023-05-27T12:39:07;101719.23;;;21.46;41.48
62926;BME280;55732;52.248;-0.844;2023-05-27T12:41:32;101717.56;;;21.53;41.00
62926;BME280;55732;52.248;-0.844;2023-05-27T12:43:58;101719.16;;;21.60;40.35